createdAt,value
2023-04-08T00:01:07.861Z,97535.13
2023-04-08T00:03:37.239Z,97540.50
2023-04-08T00:06:05.497Z,97533.47
2023-04-08T00:08:33.343Z,97537.88
2023-04-08T00:11:04.042Z,97529.19
2023-04-08T00:13:32.000Z,97531.81
2023-04-08T00:15:59.922Z,97539.41
2023-04-08T00:18:28.384Z,97548.09
2023-04-08T00:20:58.246Z,97552.28
2023-04-08T00:23:26.038Z,97536.09
2023-04-08T00:25:53.873Z,97538.00
2023-04-08T00:28:21.929Z,97538.00
2023-04-08T00:30:49.772Z,97536.09
2023-04-08T00:33:17.857Z,97537.88
2023-04-08T00:35:46.313Z,97524.22
2023-04-08T00:38:15.590Z,97519.09
2023-04-08T00:40:43.672Z,97512.31
2023-04-08T00:43:11.593Z,97508.75
2023-04-08T00:45:39.511Z,97503.63
2023-04-08T00:48:07.480Z,97513.03
2023-04-08T00:50:35.448Z,97518.13
2023-04-08T00:53:03.250Z,97513.03
2023-04-08T00:55:32.572Z,97524.22
2023-04-08T00:58:00.776Z,97515.66
2023-04-08T01:00:30.406Z,97528.50
2023-04-08T01:03:07.127Z,97525.03
2023-04-08T01:05:51.169Z,97527.66
2023-04-08T01:08:19.832Z,97530.28
2023-04-08T01:10:52.180Z,97526.84
2023-04-08T01:13:23.424Z,97520.75
2023-04-08T01:15:51.622Z,97526.84
2023-04-08T01:18:20.659Z,97523.25
2023-04-08T01:20:50.831Z,97534.44
2023-04-08T01:23:24.371Z,97534.44
2023-04-08T01:25:54.786Z,97532.78
2023-04-08T01:28:26.244Z,97538.84
2023-04-08T01:30:56.640Z,97531.13
2023-04-08T01:33:25.863Z,97528.50
2023-04-08T01:35:55.944Z,97526.00
2023-04-08T01:38:25.999Z,97512.31
2023-04-08T01:40:57.000Z,97532.78
2023-04-08T01:43:27.108Z,97519.50
2023-04-08T01:45:58.593Z,97491.72
2023-04-08T01:48:28.201Z,97515.78
2023-04-08T01:50:58.239Z,97525.03
2023-04-08T01:53:26.372Z,97507.09
2023-04-08T01:56:02.934Z,97511.50
2023-04-08T01:58:34.226Z,97522.56
2023-04-08T02:01:02.653Z,97529.44
2023-04-08T02:03:31.884Z,97526.25
2023-04-08T02:06:01.020Z,97495.91
2023-04-08T02:08:28.795Z,97473.22
2023-04-08T02:10:57.992Z,97492.72
2023-04-08T02:13:26.033Z,97494.22
2023-04-08T02:16:03.605Z,97515.66
2023-04-08T02:18:33.392Z,97512.31
2023-04-08T02:21:09.741Z,97507.34
2023-04-08T02:23:39.866Z,97508.03
2023-04-08T02:26:15.099Z,97517.56
2023-04-08T02:28:43.902Z,97520.88
2023-04-08T02:31:13.839Z,97534.56
2023-04-08T02:33:42.624Z,97525.88
2023-04-08T02:36:12.239Z,97537.06
2023-04-08T02:38:40.749Z,97525.88
2023-04-08T02:41:09.954Z,97519.94
2023-04-08T02:43:37.958Z,97543.13
2023-04-08T02:46:05.969Z,97549.91
2023-04-08T02:48:34.018Z,97553.25
2023-04-08T02:51:04.423Z,97558.50
2023-04-08T02:53:32.786Z,97572.88
2023-04-08T02:56:00.711Z,97563.47
2023-04-08T02:58:29.978Z,97574.78
2023-04-08T03:00:57.917Z,97576.47
2023-04-08T03:03:29.673Z,97563.47
2023-04-08T03:05:58.231Z,97552.28
2023-04-08T03:08:26.470Z,97556.84
2023-04-08T03:10:54.614Z,97553.06
2023-04-08T03:13:22.376Z,97553.50
2023-04-08T03:15:51.736Z,97533.88
2023-04-08T03:18:19.615Z,97529.44
2023-04-08T03:20:47.520Z,97526.00
2023-04-08T03:23:15.361Z,97518.41
2023-04-08T03:25:43.160Z,97519.22
2023-04-08T03:28:11.066Z,97501.13
2023-04-08T03:30:39.112Z,97502.94
2023-04-08T03:33:08.922Z,97471.44
2023-04-08T03:35:37.504Z,97437.16
2023-04-08T03:38:05.474Z,97413.84
2023-04-08T03:40:33.288Z,97395.34
2023-04-08T03:43:01.181Z,97364.56
2023-04-08T03:45:29.063Z,97327.81
2023-04-08T03:47:56.943Z,97320.94
2023-04-08T03:50:26.192Z,97278.44
2023-04-08T03:52:54.042Z,97290.31
2023-04-08T03:55:21.782Z,97252.50
2023-04-08T03:57:49.684Z,97216.66
2023-04-08T04:00:17.695Z,97208.22
2023-04-08T04:02:45.513Z,97186.03
2023-04-08T04:05:13.348Z,97149.50
2023-04-08T04:07:42.552Z,97101.50
2023-04-08T04:10:11.944Z,97067.59
2023-04-08T04:12:39.839Z,97031.66
2023-04-08T04:15:08.815Z,97042.00
2023-04-08T04:17:36.711Z,97001.19
2023-04-08T04:20:05.736Z,96983.16
2023-04-08T04:22:33.712Z,96971.03
2023-04-08T04:25:03.062Z,97003.69
2023-04-08T04:27:30.989Z,96974.47
2023-04-08T04:29:58.750Z,96953.13
2023-04-08T04:32:26.592Z,96972.97
2023-04-08T04:34:54.435Z,96949.00
2023-04-08T04:37:22.482Z,96931.94
2023-04-08T04:39:50.561Z,96960.16
2023-04-08T04:42:19.756Z,96974.63
2023-04-08T04:44:47.959Z,96956.72
2023-04-08T04:47:16.492Z,96950.66
2023-04-08T04:49:45.721Z,96964.44
2023-04-08T04:52:13.599Z,96982.19
2023-04-08T04:54:41.428Z,96966.22
2023-04-08T04:57:09.220Z,96968.00
2023-04-08T04:59:38.503Z,96977.22
2023-04-08T05:02:06.450Z,97020.63
2023-04-08T05:04:34.469Z,97045.28
2023-04-08T05:07:02.368Z,97073.53
2023-04-08T05:09:30.884Z,97100.69
2023-04-08T05:11:59.328Z,97129.66
2023-04-08T05:14:30.425Z,97165.63
2023-04-08T05:16:59.827Z,97182.72
2023-04-08T05:19:27.656Z,97209.03
2023-04-08T05:21:55.454Z,97249.19
2023-04-08T05:24:23.321Z,97246.44
2023-04-08T05:26:53.330Z,97291.97
2023-04-08T05:29:22.181Z,97304.66
2023-04-08T05:31:50.521Z,97259.28
2023-04-08T05:34:23.043Z,97284.22
2023-04-08T05:36:52.872Z,97360.97
2023-04-08T05:39:20.938Z,97484.16
2023-04-08T05:41:48.826Z,97678.47
2023-04-08T05:44:16.677Z,97840.09
2023-04-08T05:46:44.596Z,98054.66
2023-04-08T05:49:13.197Z,98239.81
2023-04-08T05:51:42.569Z,98441.69
2023-04-08T05:54:10.359Z,98651.00
2023-04-08T05:56:38.172Z,98784.34
2023-04-08T05:59:06.151Z,98958.69
2023-04-08T06:01:34.141Z,98959.44
2023-04-08T06:04:02.368Z,98767.31
2023-04-08T06:06:30.440Z,98765.41
2023-04-08T06:08:59.604Z,98688.97
2023-04-08T06:11:27.428Z,98717.50
2023-04-08T06:13:55.425Z,98913.81
2023-04-08T06:16:23.350Z,99135.59
2023-04-08T06:18:52.285Z,99321.38
2023-04-08T06:21:20.441Z,99505.75
2023-04-08T06:23:48.360Z,99524.78
2023-04-08T06:26:18.109Z,99637.34
2023-04-08T06:28:45.871Z,99714.41
2023-04-08T06:31:13.719Z,99740.47
2023-04-08T06:33:41.494Z,99820.97
2023-04-08T06:36:09.645Z,99926.09
2023-04-08T06:38:37.565Z,99917.41
2023-04-08T06:41:06.418Z,100033.66
2023-04-08T06:43:37.989Z,100156.19
2023-04-08T06:46:06.493Z,100244.66
2023-04-08T06:48:34.395Z,100391.75
2023-04-08T06:51:02.339Z,100391.88
2023-04-08T06:53:31.355Z,100571.00
2023-04-08T06:55:59.700Z,100562.47
2023-04-08T06:58:27.677Z,100742.88
2023-04-08T07:00:57.472Z,100810.13
2023-04-08T07:03:25.313Z,100963.56
2023-04-08T07:05:53.678Z,100911.66
2023-04-08T07:08:21.673Z,100842.25
2023-04-08T07:10:49.792Z,101001.16
2023-04-08T07:13:17.683Z,101152.28
2023-04-08T07:15:45.472Z,101051.03
2023-04-08T07:18:14.833Z,101150.66
2023-04-08T07:20:42.821Z,101108.78
2023-04-08T07:23:10.842Z,100997.63
2023-04-08T07:25:38.791Z,101002.00
2023-04-08T07:28:06.591Z,101119.13
2023-04-08T07:30:34.445Z,101191.75
2023-04-08T07:33:02.395Z,101371.00
2023-04-08T07:35:32.064Z,101471.53
2023-04-08T07:38:00.157Z,101593.25
2023-04-08T07:40:27.960Z,101749.34
2023-04-08T07:42:56.048Z,101808.13
2023-04-08T07:45:23.933Z,101811.75
2023-04-08T07:47:51.726Z,101558.22
2023-04-08T07:50:19.807Z,101751.06
2023-04-08T07:52:48.924Z,101841.41
2023-04-08T07:55:16.800Z,101873.94
2023-04-08T07:57:44.912Z,101864.97
2023-04-08T08:00:20.827Z,102022.13
2023-04-08T08:02:49.364Z,101986.19
2023-04-08T08:05:17.425Z,102160.25
2023-04-08T08:07:45.303Z,102136.47
2023-04-08T08:10:14.519Z,102048.66
2023-04-08T08:12:42.333Z,102040.66
2023-04-08T08:15:11.461Z,102051.63
2023-04-08T08:17:39.251Z,102022.22
2023-04-08T08:20:08.497Z,102285.09
2023-04-08T08:22:47.123Z,102556.13
2023-04-08T08:25:26.879Z,102669.00
2023-04-08T08:27:55.518Z,102848.84
2023-04-08T08:30:23.499Z,103023.56
2023-04-08T08:32:52.280Z,102980.22
2023-04-08T08:35:20.468Z,102680.31
2023-04-08T08:37:48.876Z,102637.97
2023-04-08T08:40:16.929Z,102550.78
2023-04-08T08:42:52.432Z,103058.88
2023-04-08T08:45:20.891Z,103607.38
2023-04-08T08:47:51.005Z,103531.25
2023-04-08T08:50:19.765Z,103591.44
2023-04-08T08:52:49.997Z,103547.16
2023-04-08T08:55:35.085Z,103597.59
2023-04-08T08:58:10.149Z,103589.16
2023-04-08T09:00:39.198Z,103696.03
2023-04-08T09:03:21.344Z,103201.06
2023-04-08T09:05:50.920Z,103183.53
2023-04-08T09:08:27.260Z,103137.63
2023-04-08T09:10:55.476Z,103200.97
2023-04-08T09:13:25.668Z,103460.25
2023-04-08T09:16:05.163Z,103671.03
2023-04-08T09:18:34.871Z,104226.72
2023-04-08T09:21:04.022Z,104252.41
2023-04-08T09:23:42.920Z,104523.00
2023-04-08T09:26:12.895Z,104807.38
2023-04-08T09:28:58.845Z,104896.41
2023-04-08T09:31:28.425Z,104550.63
2023-04-08T09:33:57.497Z,104356.59
2023-04-08T09:36:26.652Z,104532.63
2023-04-08T09:38:54.926Z,104860.63
2023-04-08T09:41:24.322Z,105095.41
2023-04-08T09:43:56.878Z,105148.19
2023-04-08T09:46:28.549Z,105576.53
2023-04-08T09:49:07.967Z,105900.13
2023-04-08T09:51:41.811Z,105893.75
2023-04-08T09:54:15.732Z,105753.84
2023-04-08T09:56:48.153Z,106159.44
2023-04-08T09:59:21.589Z,106135.16
2023-04-08T10:01:55.030Z,105964.56
2023-04-08T10:04:26.623Z,106321.16
2023-04-08T10:06:58.479Z,106954.13
2023-04-08T10:09:28.072Z,106543.25
2023-04-08T10:11:56.912Z,106576.47
2023-04-08T10:14:28.707Z,107005.41
2023-04-08T10:17:27.661Z,106606.13
2023-04-08T10:19:55.792Z,107116.28
2023-04-08T10:22:49.227Z,107197.53
2023-04-08T10:25:33.907Z,107073.84
2023-04-08T10:28:03.435Z,107024.19
2023-04-08T10:30:46.342Z,107049.44
2023-04-08T10:33:16.570Z,106644.59
2023-04-08T10:35:48.512Z,106946.41
2023-04-08T10:38:17.727Z,107335.53
2023-04-08T10:40:46.018Z,107686.38
2023-04-08T10:43:16.161Z,107336.53
2023-04-08T10:45:48.610Z,107088.84
2023-04-08T10:48:19.009Z,106890.38
2023-04-08T10:50:54.918Z,105950.28
2023-04-08T10:53:28.348Z,106175.53
2023-04-08T10:55:56.640Z,106992.00
2023-04-08T10:58:24.514Z,106249.06
2023-04-08T11:00:53.777Z,106479.31
2023-04-08T11:03:21.806Z,106523.22
2023-04-08T11:05:50.980Z,106929.50
2023-04-08T11:08:20.928Z,107003.56
2023-04-08T11:10:49.574Z,107588.09
2023-04-08T11:13:17.586Z,107829.81
2023-04-08T11:15:45.645Z,107932.22
2023-04-08T11:18:15.089Z,108084.56
2023-04-08T11:20:45.408Z,107380.06
2023-04-08T11:23:14.871Z,106575.19
2023-04-08T11:25:43.780Z,106322.25
2023-04-08T11:28:14.768Z,106154.91
2023-04-08T11:30:43.441Z,107170.00
2023-04-08T11:33:11.719Z,107562.34
2023-04-08T11:35:43.128Z,107656.41
2023-04-08T11:38:11.201Z,107918.28
2023-04-08T11:40:39.417Z,107563.19
2023-04-08T11:43:10.885Z,107925.38
2023-04-08T11:45:40.327Z,108093.16
2023-04-08T11:48:11.992Z,108170.25
2023-04-08T11:50:39.931Z,107638.16
2023-04-08T11:53:19.723Z,107758.47
2023-04-08T11:55:48.550Z,108037.88
2023-04-08T11:58:16.896Z,108167.34
2023-04-08T12:00:45.735Z,108004.88
2023-04-08T12:03:14.186Z,107762.03
2023-04-08T12:05:42.624Z,106951.81
2023-04-08T12:08:37.353Z,107014.03
2023-04-08T12:11:18.821Z,107421.28
2023-04-08T12:13:50.218Z,107813.25
2023-04-08T12:16:18.702Z,106937.19
2023-04-08T12:18:46.784Z,107367.81
2023-04-08T12:21:15.169Z,106979.66
2023-04-08T12:23:44.580Z,107374.91
2023-04-08T12:26:13.319Z,107564.97
2023-04-08T12:28:41.522Z,107187.00
2023-04-08T12:31:09.398Z,107474.25
2023-04-08T12:33:37.216Z,107223.91
2023-04-08T12:36:05.219Z,106646.53
2023-04-08T12:38:33.561Z,107179.56
2023-04-08T12:41:02.831Z,107061.22
2023-04-08T12:43:32.722Z,107469.53
2023-04-08T12:46:01.689Z,107462.25
2023-04-08T12:48:29.509Z,107536.47
2023-04-08T12:50:58.824Z,107654.03
2023-04-08T12:53:26.666Z,107393.41
2023-04-08T12:55:57.194Z,107644.97
2023-04-08T12:58:26.528Z,107291.16
2023-04-08T13:00:54.535Z,106906.53
2023-04-08T13:03:22.891Z,106804.47
2023-04-08T13:05:51.111Z,107349.63
2023-04-08T13:08:19.288Z,107239.34
2023-04-08T13:10:47.299Z,107151.72
2023-04-08T13:13:15.167Z,107155.25
2023-04-08T13:15:44.794Z,107145.25
2023-04-08T13:18:12.599Z,107336.81
2023-04-08T13:20:40.480Z,106740.03
2023-04-08T13:23:08.342Z,106970.84
2023-04-08T13:25:36.136Z,106924.78
2023-04-08T13:28:04.001Z,106856.19
2023-04-08T13:30:32.215Z,107787.16
2023-04-08T13:33:01.803Z,107280.44
2023-04-08T13:35:29.707Z,107457.53
2023-04-08T13:37:57.589Z,107927.63
2023-04-08T13:40:25.379Z,108275.13
2023-04-08T13:42:53.287Z,107932.03
2023-04-08T13:45:21.430Z,107885.75
2023-04-08T13:47:49.519Z,108031.69
2023-04-08T13:50:18.744Z,107975.41
2023-04-08T13:52:46.728Z,107709.81
2023-04-08T13:55:14.551Z,107790.41
2023-04-08T13:57:42.340Z,107764.97
2023-04-08T14:00:11.481Z,107794.78
2023-04-08T14:02:39.472Z,107143.41
2023-04-08T14:05:08.621Z,107062.88
2023-04-08T14:07:37.807Z,106911.28
2023-04-08T14:10:07.125Z,107145.84
2023-04-08T14:12:35.026Z,107332.88
2023-04-08T14:15:03.605Z,107644.09
2023-04-08T14:17:32.056Z,107714.63
2023-04-08T14:20:01.040Z,107623.13
2023-04-08T14:22:28.897Z,107785.16
2023-04-08T14:24:58.074Z,107346.22
2023-04-08T14:27:26.284Z,107281.09
2023-04-08T14:29:54.091Z,106736.69
2023-04-08T14:32:22.106Z,106870.94
2023-04-08T14:34:50.078Z,107329.66
2023-04-08T14:37:19.582Z,107187.63
2023-04-08T14:39:47.500Z,107439.91
2023-04-08T14:42:18.249Z,107771.19
2023-04-08T14:44:46.053Z,107702.31
2023-04-08T14:47:13.882Z,107743.84
2023-04-08T14:49:41.643Z,107395.41
2023-04-08T14:52:09.474Z,107169.31
2023-04-08T14:54:37.638Z,107078.00
2023-04-08T14:57:05.503Z,107207.13
2023-04-08T14:59:34.637Z,107133.84
2023-04-08T15:02:02.489Z,106944.25
2023-04-08T15:04:30.505Z,106986.69
2023-04-08T15:06:58.388Z,106845.00
2023-04-08T15:09:26.358Z,107043.44
2023-04-08T15:11:54.149Z,107176.03
2023-04-08T15:14:21.901Z,106928.88
2023-04-08T15:16:51.402Z,106915.06
2023-04-08T15:19:19.829Z,107225.66
2023-04-08T15:21:47.720Z,106693.22
2023-04-08T15:24:15.719Z,106732.66
2023-04-08T15:26:43.535Z,106865.25
2023-04-08T15:29:11.335Z,106308.03
2023-04-08T15:31:39.151Z,105639.75
2023-04-08T15:34:08.341Z,104869.63
2023-04-08T15:36:37.806Z,104457.78
2023-04-08T15:39:06.066Z,104080.66
2023-04-08T15:41:33.978Z,104016.53
2023-04-08T15:44:01.921Z,103870.06
2023-04-08T15:46:29.769Z,103753.88
2023-04-08T15:48:58.368Z,103644.53
2023-04-08T15:51:28.977Z,103342.53
2023-04-08T15:53:57.450Z,102889.28
2023-04-08T15:56:27.008Z,102774.44
2023-04-08T15:58:54.956Z,102505.63
2023-04-08T16:01:22.710Z,102281.00
2023-04-08T16:03:50.591Z,102134.28
2023-04-08T16:06:18.566Z,101905.75
2023-04-08T16:08:48.495Z,101734.84
2023-04-08T16:11:17.578Z,101560.53
2023-04-08T16:13:45.529Z,101620.00
2023-04-08T16:16:13.429Z,101690.84
2023-04-08T16:18:42.086Z,101584.91
2023-04-08T16:21:09.860Z,101457.88
2023-04-08T16:23:38.446Z,101231.13
2023-04-08T16:26:08.801Z,101055.44
2023-04-08T16:28:36.863Z,100949.03
2023-04-08T16:31:04.828Z,100845.16
2023-04-08T16:33:33.440Z,100707.41
2023-04-08T16:36:03.417Z,100580.25
2023-04-08T16:38:31.417Z,100491.47
2023-04-08T16:40:59.478Z,100427.91
2023-04-08T16:43:28.643Z,100372.22
2023-04-08T16:45:57.165Z,100293.84
2023-04-08T16:48:24.991Z,100189.78
2023-04-08T16:50:52.739Z,100169.59
2023-04-08T16:53:20.717Z,100113.03
2023-04-08T16:55:48.640Z,100040.16
2023-04-08T16:58:16.470Z,99954.91
2023-04-08T17:00:45.639Z,99929.91
2023-04-08T17:03:13.861Z,99837.13
2023-04-08T17:05:42.336Z,99707.13
2023-04-08T17:08:10.182Z,99634.28
2023-04-08T17:10:38.135Z,99509.59
2023-04-08T17:13:06.115Z,99465.59
2023-04-08T17:15:36.029Z,99395.56
2023-04-08T17:18:05.486Z,99293.69
2023-04-08T17:20:33.228Z,99274.56
2023-04-08T17:23:00.980Z,99175.25
2023-04-08T17:25:28.875Z,99106.00
2023-04-08T17:27:57.931Z,99140.75
2023-04-08T17:30:25.845Z,99063.63
2023-04-08T17:32:53.616Z,98961.06
2023-04-08T17:35:22.813Z,98879.22
2023-04-08T17:37:50.625Z,98777.38
2023-04-08T17:40:18.745Z,98725.84
2023-04-08T17:42:46.615Z,98677.66
2023-04-08T17:45:15.018Z,98622.56
2023-04-08T17:47:44.237Z,98574.13
2023-04-08T17:50:12.237Z,98494.16
2023-04-08T17:52:44.059Z,98409.19
2023-04-08T17:55:11.800Z,98337.75
2023-04-08T17:57:39.871Z,98335.25
2023-04-08T18:00:08.670Z,98288.88
2023-04-08T18:02:37.309Z,98236.34
2023-04-08T18:05:06.588Z,98148.06
2023-04-08T18:07:34.490Z,98084.81
2023-04-08T18:10:03.701Z,98068.16
2023-04-08T18:12:31.663Z,98075.25
2023-04-08T18:15:00.101Z,98021.28
2023-04-08T18:17:28.801Z,97983.28
2023-04-08T18:19:56.556Z,97916.47
2023-04-08T18:22:24.411Z,97872.56
2023-04-08T18:24:52.245Z,97834.16
2023-04-08T18:27:21.584Z,97819.63
2023-04-08T18:29:49.314Z,97784.88
2023-04-08T18:32:17.302Z,97805.91
2023-04-08T18:34:45.048Z,97786.25
2023-04-08T18:37:13.150Z,97726.19
2023-04-08T18:39:41.496Z,97658.50
2023-04-08T18:42:09.257Z,97618.50
2023-04-08T18:44:38.745Z,97599.69
2023-04-08T18:47:07.176Z,97563.75
2023-04-08T18:49:35.461Z,97500.16
2023-04-08T18:52:03.596Z,97443.19
2023-04-08T18:54:31.843Z,97403.00
2023-04-08T18:56:59.924Z,97354.22
2023-04-08T18:59:29.903Z,97315.84
2023-04-08T19:01:59.061Z,97262.81
2023-04-08T19:04:27.465Z,97196.31
2023-04-08T19:06:55.480Z,97130.78
2023-04-08T19:09:23.513Z,97100.84
2023-04-08T19:11:51.373Z,97066.91
2023-04-08T19:14:19.214Z,97007.94
2023-04-08T19:16:47.002Z,96995.25
2023-04-08T19:19:16.271Z,96921.94
2023-04-08T19:21:44.341Z,96892.22
2023-04-08T19:24:12.155Z,96861.47
2023-04-08T19:26:39.884Z,96870.19
2023-04-08T19:29:09.363Z,96816.75
2023-04-08T19:31:37.778Z,96805.31
2023-04-08T19:34:05.783Z,96772.97
2023-04-08T19:36:34.873Z,96765.56
2023-04-08T19:39:03.617Z,96744.06
2023-04-08T19:41:31.457Z,96706.50
2023-04-08T19:43:59.263Z,96671.72
2023-04-08T19:46:27.073Z,96618.06
2023-04-08T19:48:56.239Z,96568.88
2023-04-08T19:51:24.317Z,96506.75
2023-04-08T19:53:55.333Z,96464.59
2023-04-08T19:56:23.050Z,96427.06
2023-04-08T19:58:51.026Z,96404.00
2023-04-08T20:01:19.335Z,96396.44
2023-04-08T20:03:50.537Z,96377.63
2023-04-08T20:06:18.740Z,96387.13
2023-04-08T20:08:46.956Z,96399.88
2023-04-08T20:11:16.086Z,96409.06
2023-04-08T20:13:43.961Z,96393.84
2023-04-08T20:16:11.758Z,96347.19
2023-04-08T20:18:39.743Z,96305.72
2023-04-08T20:21:10.117Z,96251.25
2023-04-08T20:23:43.991Z,96210.63
2023-04-08T20:26:12.649Z,96174.00
2023-04-08T20:28:43.870Z,96166.50
2023-04-08T20:31:11.726Z,96187.75
2023-04-08T20:33:43.764Z,96187.75
2023-04-08T20:36:13.684Z,96178.28
2023-04-08T20:38:42.486Z,96159.63
2023-04-08T20:41:11.428Z,96135.09
2023-04-08T20:43:39.419Z,96104.50
2023-04-08T20:46:09.253Z,96087.50
2023-04-08T20:48:37.244Z,96073.94
2023-04-08T20:51:05.401Z,96062.03
2023-04-08T20:53:34.482Z,96045.84
2023-04-08T20:56:03.117Z,96035.88
2023-04-08T20:58:31.157Z,96030.81
2023-04-08T21:00:59.815Z,96077.22
2023-04-08T21:03:29.185Z,96040.94
2023-04-08T21:05:57.571Z,96025.72
2023-04-08T21:08:25.394Z,95992.69
2023-04-08T21:10:54.302Z,95962.16
2023-04-08T21:13:22.199Z,95936.69
2023-04-08T21:15:50.121Z,95935.06
2023-04-08T21:18:17.905Z,95919.06
2023-04-08T21:20:47.089Z,95909.59
2023-04-08T21:23:15.041Z,95899.47
2023-04-08T21:25:42.785Z,95884.09
2023-04-08T21:28:10.484Z,95875.78
2023-04-08T21:30:38.617Z,95865.50
2023-04-08T21:33:06.497Z,95840.34
2023-04-08T21:35:34.380Z,95806.72
2023-04-08T21:38:03.523Z,95794.50
2023-04-08T21:40:31.342Z,95796.28
2023-04-08T21:42:59.109Z,95780.97
2023-04-08T21:45:26.979Z,95756.63
2023-04-08T21:47:55.188Z,95754.81
2023-04-08T21:50:23.099Z,95753.19
2023-04-08T21:52:51.023Z,95732.81
2023-04-08T21:55:20.267Z,95712.44
2023-04-08T21:57:48.964Z,95694.00
2023-04-08T22:00:16.854Z,95677.16
2023-04-08T22:02:45.275Z,95655.00
2023-04-08T22:05:13.480Z,95653.69
2023-04-08T22:07:41.727Z,95655.00
2023-04-08T22:10:10.320Z,95635.78
2023-04-08T22:12:39.517Z,95606.78
2023-04-08T22:15:08.694Z,95599.28
2023-04-08T22:17:36.896Z,95586.56
2023-04-08T22:20:05.093Z,95560.19
2023-04-08T22:22:32.866Z,95571.25
2023-04-08T22:25:00.647Z,95559.22
2023-04-08T22:27:29.199Z,95556.72
2023-04-08T22:29:58.333Z,95608.41
2023-04-08T22:32:26.149Z,95598.16
2023-04-08T22:34:54.011Z,95584.28
2023-04-08T22:37:21.798Z,95551.84
2023-04-08T22:39:49.608Z,95533.28
2023-04-08T22:42:17.508Z,95506.06
2023-04-08T22:44:45.465Z,95474.81
2023-04-08T22:47:14.983Z,95463.91
2023-04-08T22:49:43.574Z,95453.13
2023-04-08T22:52:11.598Z,95443.69
2023-04-08T22:54:39.386Z,95459.00
2023-04-08T22:57:07.262Z,95433.59
2023-04-08T22:59:35.087Z,95447.09
2023-04-08T23:02:03.169Z,95431.81
2023-04-08T23:04:32.471Z,95434.41
2023-04-08T23:07:00.377Z,95432.47
2023-04-08T23:09:28.381Z,95425.94
2023-04-08T23:11:56.400Z,95412.28
2023-04-08T23:14:24.180Z,95392.09
2023-04-08T23:16:52.044Z,95368.34
2023-04-08T23:19:19.942Z,95349.78
2023-04-08T23:21:49.113Z,95352.53
2023-04-08T23:24:16.939Z,95360.19
2023-04-08T23:26:45.399Z,95342.75
2023-04-08T23:29:13.214Z,95359.22
2023-04-08T23:31:41.219Z,95361.81
2023-04-08T23:34:09.054Z,95368.34
2023-04-08T23:36:36.881Z,95354.03
2023-04-08T23:39:05.944Z,95345.56
2023-04-08T23:41:33.855Z,95346.53
2023-04-08T23:44:01.961Z,95331.22
2023-04-08T23:46:29.763Z,95320.31
2023-04-08T23:48:57.751Z,95309.41
2023-04-08T23:51:25.958Z,95307.78
2023-04-08T23:53:53.851Z,95282.41
2023-04-08T23:56:23.868Z,95268.91
2023-04-08T23:58:51.869Z,95248.91
